Time;durP1;ratioP1;P1;durP2;ratioP2;P2;SDS_P1;SDS_P2;PMS_P1;PMS_P2;Temp;Humidity;BMP_temperature;BMP_pressure;BME280_temperature;BME280_humidity;BME280_pressure;Samples;Min_cycle;Max_cycle;Signal;HPM_P1;HPM_P2
2022/01/01 00:01:44;;;;;;;4.00;3.60;;;;;;;14.59;46.50;96266.94;5031624;28;20036;-60
2022/01/01 00:04:10;;;;;;;3.58;3.10;;;;;;;14.31;47.25;96267.75;5049563;28;20505;-60
2022/01/01 00:06:35;;;;;;;5.07;3.35;;;;;;;14.10;48.35;96289.88;5049130;28;20029;-61
2022/01/01 00:09:01;;;;;;;3.85;3.22;;;;;;;13.65;49.24;96266.38;5030695;28;20028;-63
2022/01/01 00:11:26;;;;;;;3.10;2.80;;;;;;;14.20;47.60;96268.28;5049489;28;20064;-64
2022/01/01 00:13:51;;;;;;;4.60;3.30;;;;;;;14.21;48.26;96294.72;5049754;28;20021;-62
2022/01/01 00:16:17;;;;;;;3.50;3.20;;;;;;;14.32;47.47;96271.22;5049572;28;20032;-62
2022/01/01 00:18:42;;;;;;;2.92;2.72;;;;;;;14.28;47.20;96264.91;5049155;28;20036;-62
2022/01/01 00:21:08;;;;;;;3.33;3.03;;;;;;;14.35;47.36;96276.00;5030557;28;20036;-63
2022/01/01 00:23:34;;;;;;;3.13;2.83;;;;;;;14.77;46.67;96292.78;5031389;28;20560;-61
2022/01/01 00:25:59;;;;;;;4.53;3.28;;;;;;;14.68;46.30;96295.38;5048731;28;20029;-60
2022/01/01 00:28:25;;;;;;;3.55;2.72;;;;;;;14.20;48.02;96287.81;5049129;28;20466;-60
2022/01/01 00:30:50;;;;;;;3.08;2.78;;;;;;;13.64;48.44;96223.91;5049006;28;20110;-60
2022/01/01 00:33:16;;;;;;;3.47;3.15;;;;;;;14.32;47.61;96288.06;5031538;28;20099;-60
2022/01/01 00:35:41;;;;;;;2.90;2.60;;;;;;;13.64;49.05;96302.22;5048484;28;20449;-59
2022/01/01 00:38:07;;;;;;;3.88;2.72;;;;;;;13.73;49.03;96299.69;5048472;28;20029;-60
2022/01/01 00:40:33;;;;;;;2.83;2.25;;;;;;;13.70;48.94;96284.22;5031077;28;20032;-59
2022/01/01 00:43:01;;;;;;;3.13;2.40;;;;;;;13.81;48.76;96298.19;5031492;28;20025;-59
2022/01/01 00:45:26;;;;;;;4.85;2.55;;;;;;;13.88;48.23;96272.66;5031690;28;20032;-59
2022/01/01 00:47:51;;;;;;;3.28;2.65;;;;;;;13.67;48.80;96271.47;5049326;28;20025;-59
2022/01/01 00:50:17;;;;;;;3.03;2.35;;;;;;;13.56;49.76;96310.13;5030166;28;20032;-59
2022/01/01 00:52:44;;;;;;;2.92;2.60;;;;;;;13.45;49.42;96280.91;5030569;28;20033;-60
2022/01/01 00:55:10;;;;;;;3.05;2.42;;;;;;;13.59;49.51;96313.00;5049075;28;20013;-60
2022/01/01 00:57:36;;;;;;;3.20;2.90;;;;;;;13.80;48.82;96313.44;5049174;28;20052;-60
2022/01/01 01:00:05;;;;;;;2.58;2.38;;;;;;;13.30;50.22;96323.91;5048612;28;20069;-59
2022/01/01 01:02:31;;;;;;;4.28;2.22;;;;;;;13.77;49.42;96332.78;5048872;28;20090;-59
2022/01/01 01:04:57;;;;;;;4.80;2.92;;;;;;;14.10;48.31;96325.47;5049175;28;20029;-60
2022/01/01 01:07:22;;;;;;;3.00;2.58;;;;;;;14.67;46.09;96314.44;5048337;28;20701;-59
2022/01/01 01:09:48;;;;;;;2.85;2.65;;;;;;;14.63;46.22;96326.84;5048267;28;20028;-59
2022/01/01 01:12:13;;;;;;;3.00;2.70;;;;;;;14.49;46.86;96314.28;5031270;28;20025;-59
2022/01/01 01:14:42;;;;;;;4.00;3.38;;;;;;;14.20;46.18;96242.31;5048884;28;20032;-59
2022/01/01 01:17:10;;;;;;;4.13;3.15;;;;;;;14.65;45.80;96312.06;5031303;28;20670;-59
2022/01/01 01:19:35;;;;;;;3.53;3.22;;;;;;;14.85;45.75;96332.25;5048335;28;20115;-61
2022/01/01 01:22:00;;;;;;;3.08;2.78;;;;;;;14.85;45.51;96336.81;5030458;28;20067;-60
2022/01/01 01:24:26;;;;;;;3.38;3.08;;;;;;;14.93;45.74;96352.16;5048561;28;20029;-60
2022/01/01 01:26:52;;;;;;;4.53;2.88;;;;;;;14.93;45.45;96344.13;5030983;28;20572;-60
2022/01/01 01:29:19;;;;;;;5.43;3.30;;;;;;;14.92;44.90;96339.88;5048085;28;20043;-59
2022/01/01 01:31:45;;;;;;;3.75;3.28;;;;;;;14.92;45.04;96337.97;5030955;28;20374;-59
2022/01/01 01:34:11;;;;;;;4.65;3.42;;;;;;;14.92;45.46;96356.75;5048809;28;20671;-59
2022/01/01 01:36:36;;;;;;;3.85;3.30;;;;;;;14.87;45.59;96348.81;5046404;23;20135;-66
2022/01/01 01:39:02;;;;;;;3.70;3.30;;;;;;;14.94;45.76;96369.81;5031503;28;20013;-69
2022/01/01 01:41:30;;;;;;;4.15;3.22;;;;;;;14.69;45.21;96333.66;5048380;28;20025;-66
2022/01/01 01:43:58;;;;;;;3.50;3.20;;;;;;;14.57;45.63;96332.28;5033084;28;20018;-66
2022/01/01 01:46:25;;;;;;;4.03;3.22;;;;;;;14.15;45.61;96271.06;5033078;28;20475;-66
2022/01/01 01:48:51;;;;;;;3.97;3.50;;;;;;;14.49;45.74;96322.31;5032350;28;20117;-66
2022/01/01 01:51:16;;;;;;;4.20;3.80;;;;;;;14.50;45.72;96326.56;5032163;28;20152;-67
2022/01/01 01:53:42;;;;;;;5.65;3.40;;;;;;;14.34;46.61;96346.69;5032880;28;20079;-66
2022/01/01 01:56:08;;;;;;;3.60;3.20;;;;;;;14.48;45.75;96338.66;5032706;28;20022;-67
2022/01/01 01:58:34;;;;;;;4.32;3.50;;;;;;;14.54;46.01;96354.34;5032225;28;20022;-67
2022/01/01 02:01:20;;;;;;;3.75;3.38;;;;;;;14.07;46.13;96285.13;5031947;28;20025;-66
2022/01/01 02:03:45;;;;;;;3.33;3.03;;;;;;;14.48;45.80;96342.13;5032033;28;20025;-66
2022/01/01 02:06:11;;;;;;;3.47;3.17;;;;;;;14.41;46.26;96354.31;5031832;28;20040;-67
2022/01/01 02:08:36;;;;;;;4.68;3.60;;;;;;;14.42;46.14;96350.53;5031847;28;20056;-67
2022/01/01 02:11:03;;;;;;;4.32;3.92;;;;;;;13.98;46.70;96293.06;5031522;28;20034;-66
2022/01/01 02:14:01;;;;;;;3.47;2.95;;;;;;;14.22;46.94;96360.53;5032197;28;20031;-68
2022/01/01 02:18:56;;;;;;;4.35;3.95;;;;;;;14.36;46.82;96352.50;5032073;28;20044;-68
2022/01/01 02:21:22;;;;;;;4.93;3.67;;;;;;;14.46;46.22;96364.91;5031432;28;20026;-68
2022/01/01 02:23:48;;;;;;;4.32;3.92;;;;;;;14.01;47.54;96354.78;5031514;28;20032;-67
2022/01/01 02:26:16;;;;;;;4.18;3.83;;;;;;;13.67;47.82;96335.63;5031643;28;20022;-67
2022/01/01 02:28:47;;;;;;;5.22;3.60;;;;;;;13.96;48.00;96360.22;5031407;28;20108;-68
2022/01/01 02:31:14;;;;;;;4.10;3.67;;;;;;;13.24;48.98;96317.84;5031299;28;20121;-68
2022/01/01 02:33:43;;;;;;;6.32;3.38;;;;;;;13.84;48.21;96351.88;5014382;28;20053;-67
2022/01/01 02:36:08;;;;;;;4.43;3.85;;;;;;;13.91;47.24;96330.88;5031272;28;20520;-67
2022/01/01 02:38:35;;;;;;;4.15;3.67;;;;;;;14.11;47.28;96332.38;5031194;28;20025;-67
2022/01/01 02:41:01;;;;;;;3.75;3.40;;;;;;;13.58;48.05;96310.66;5031063;28;20029;-67
2022/01/01 02:43:26;;;;;;;4.03;3.65;;;;;;;14.11;47.38;96342.31;5031313;28;20380;-68
2022/01/01 02:45:53;;;;;;;3.83;3.45;;;;;;;13.85;47.48;96310.69;5031608;28;20029;-67
2022/01/01 02:48:18;;;;;;;3.50;3.15;;;;;;;13.52;47.84;96286.69;5030483;28;20037;-68
2022/01/01 02:50:44;;;;;;;3.67;2.90;;;;;;;13.05;49.10;96316.25;5030429;28;20025;-67
2022/01/01 02:53:13;;;;;;;3.88;3.35;;;;;;;13.57;48.61;96335.78;5030848;28;20427;-68
2022/01/01 02:55:40;;;;;;;4.47;3.08;;;;;;;13.08;50.06;96345.06;5030898;28;20028;-68
2022/01/01 02:58:05;;;;;;;3.70;3.10;;;;;;;13.61;48.55;96342.13;5030869;28;20025;-67
2022/01/01 03:00:31;;;;;;;3.55;3.10;;;;;;;13.15;49.53;96338.28;5030678;28;20184;-67
2022/01/01 03:02:56;;;;;;;3.30;3.00;;;;;;;13.22;49.57;96348.63;5030969;28;20117;-67
2022/01/01 03:05:22;;;;;;;5.95;4.18;;;;;;;13.33;49.46;96350.06;5030762;28;20032;-67
2022/01/01 03:07:47;;;;;;;5.03;3.65;;;;;;;13.58;48.91;96356.88;5030339;28;20021;-67
2022/01/01 03:10:13;;;;;;;3.30;3.00;;;;;;;13.13;49.74;96372.50;5029981;28;20029;-69
2022/01/01 03:12:38;;;;;;;4.55;3.53;;;;;;;13.30;48.21;96293.72;5030625;28;20025;-67
2022/01/01 03:15:04;;;;;;;3.33;3.03;;;;;;;13.22;48.17;96292.53;5030907;28;20108;-67
2022/01/01 03:17:29;;;;;;;3.05;2.85;;;;;;;13.61;48.39;96347.47;5030564;28;20025;-68
2022/01/01 03:19:55;;;;;;;3.60;3.30;;;;;;;13.17;48.79;96314.75;5029882;28;20022;-67
2022/01/01 03:22:20;;;;;;;4.00;3.40;;;;;;;13.07;48.46;96266.03;5012243;28;20026;-67
2022/01/01 03:24:46;;;;;;;3.63;3.22;;;;;;;13.47;48.75;96369.63;5030312;28;20119;-68
2022/01/01 03:27:11;;;;;;;3.80;3.40;;;;;;;13.21;49.48;96371.91;5030482;28;20666;-67
2022/01/01 03:29:38;;;;;;;4.75;3.67;;;;;;;13.07;49.74;96375.56;5029797;28;20063;-68
2022/01/01 03:32:04;;;;;;;5.05;4.00;;;;;;;12.84;49.39;96303.22;5030382;28;20029;-67
2022/01/01 03:34:29;;;;;;;4.68;3.70;;;;;;;12.84;49.48;96313.09;5030940;28;20028;-67
2022/01/01 03:36:55;;;;;;;5.53;4.10;;;;;;;13.19;49.44;96367.88;5012374;28;20029;-67
2022/01/01 03:39:22;;;;;;;5.15;3.70;;;;;;;13.07;49.43;96348.84;5012185;28;20021;-69
2022/01/01 03:41:49;;;;;;;4.10;3.70;;;;;;;13.02;49.57;96371.88;5030439;28;20037;-66
2022/01/01 03:44:14;;;;;;;4.68;3.28;;;;;;;12.91;49.84;96378.44;5030395;28;20064;-67
2022/01/01 03:46:39;;;;;;;4.22;3.50;;;;;;;12.95;50.33;96395.47;5030119;28;20104;-67
2022/01/01 03:49:05;;;;;;;3.47;3.17;;;;;;;12.69;50.78;96395.03;5029624;28;20048;-67
2022/01/01 03:51:30;;;;;;;3.35;3.05;;;;;;;12.54;50.76;96370.34;5028719;28;20120;-67
2022/01/01 03:53:56;;;;;;;3.92;3.45;;;;;;;12.86;50.24;96365.16;5028395;28;20072;-67
2022/01/01 03:56:21;;;;;;;4.45;3.22;;;;;;;13.00;48.92;96341.19;5029639;28;20164;-67
2022/01/01 03:58:47;;;;;;;5.70;3.60;;;;;;;13.47;48.99;96411.59;5029835;28;20116;-69
2022/01/01 04:01:12;;;;;;;3.55;3.03;;;;;;;13.21;48.81;96376.41;5028808;28;20487;-69
2022/01/01 04:03:38;;;;;;;3.30;3.00;;;;;;;13.53;48.50;96392.50;5029922;28;20025;-67
2022/01/01 04:06:04;;;;;;;4.50;3.40;;;;;;;13.93;47.65;96413.53;5029543;28;20025;-69
2022/01/01 04:08:31;;;;;;;5.45;3.75;;;;;;;13.55;47.40;96324.59;5026025;28;20364;-67
2022/01/01 04:10:56;;;;;;;5.07;4.20;;;;;;;14.03;46.79;96382.03;5028101;28;20033;-67
2022/01/01 04:13:22;;;;;;;4.68;3.80;;;;;;;14.08;47.12;96383.03;5030156;28;20040;-67
2022/01/01 04:15:47;;;;;;;4.20;3.80;;;;;;;14.17;47.31;96400.75;5029874;28;20026;-67
2022/01/01 04:18:18;;;;;;;5.03;3.95;;;;;;;14.04;46.50;96382.84;5029767;28;20053;-66
2022/01/01 04:20:45;;;;;;;3.85;3.25;;;;;;;13.71;47.82;96364.13;5029881;28;20025;-69
2022/01/01 04:23:11;;;;;;;5.97;3.00;;;;;;;13.77;48.06;96375.56;5011195;28;20391;-66
2022/01/01 04:25:38;;;;;;;4.20;3.30;;;;;;;13.92;47.68;96380.63;5029510;28;20028;-70
2022/01/01 04:28:04;;;;;;;3.65;3.28;;;;;;;13.91;48.20;96396.97;5009914;28;20030;-67
2022/01/01 04:30:29;;;;;;;3.95;3.22;;;;;;;14.01;47.31;96389.56;5009526;28;20058;-69
2022/01/01 04:32:59;;;;;;;3.80;3.30;;;;;;;13.91;47.78;96387.06;5009961;28;20101;-67
2022/01/01 04:35:25;;;;;;;4.35;3.17;;;;;;;13.90;48.18;96384.69;5009871;28;20029;-67
2022/01/01 04:37:51;;;;;;;4.10;3.35;;;;;;;13.68;48.27;96356.72;5010901;28;20033;-66
2022/01/01 04:40:16;;;;;;;3.92;3.20;;;;;;;13.57;48.13;96354.50;5028725;28;20055;-68
2022/01/01 04:42:42;;;;;;;3.85;3.05;;;;;;;13.76;48.79;96393.44;5012448;28;20120;-69
2022/01/01 04:45:08;;;;;;;4.07;3.08;;;;;;;13.78;48.60;96391.31;5030166;28;20472;-67
2022/01/01 04:47:33;;;;;;;3.40;3.08;;;;;;;13.71;48.21;96374.03;5030434;28;20021;-69
2022/01/01 04:49:59;;;;;;;4.82;3.08;;;;;;;13.86;48.22;96399.72;5029436;28;20030;-68
2022/01/01 04:52:24;;;;;;;3.13;2.83;;;;;;;13.79;48.12;96387.53;5029177;28;20049;-68
2022/01/01 04:54:49;;;;;;;4.35;2.88;;;;;;;13.68;48.25;96378.09;5029346;28;20029;-66
2022/01/01 04:57:15;;;;;;;3.30;3.00;;;;;;;13.63;48.28;96377.41;5029464;28;20025;-68
2022/01/01 04:59:41;;;;;;;3.90;3.00;;;;;;;13.76;48.68;96412.16;5028722;28;20030;-68
2022/01/01 05:02:07;;;;;;;3.45;3.00;;;;;;;13.52;48.85;96377.56;5011522;28;20178;-69
2022/01/01 05:04:33;;;;;;;3.30;2.92;;;;;;;13.37;49.02;96351.06;5029416;28;20464;-68
2022/01/01 05:06:59;;;;;;;3.05;2.72;;;;;;;13.52;48.66;96388.25;5028811;28;20029;-68
2022/01/01 05:09:27;;;;;;;2.88;2.58;;;;;;;13.38;49.34;96370.56;5028205;28;20078;-69
2022/01/01 05:11:53;;;;;;;4.07;2.97;;;;;;;13.44;50.11;96409.50;5031156;28;20037;-68
2022/01/01 05:14:18;;;;;;;2.50;2.30;;;;;;;13.42;49.91;96409.00;5033058;28;20025;-69
2022/01/01 05:16:45;;;;;;;3.25;2.50;;;;;;;13.39;49.82;96391.66;5033133;28;20025;-69
2022/01/01 05:19:10;;;;;;;3.42;2.40;;;;;;;13.20;50.57;96402.31;5032501;28;20036;-69
2022/01/01 05:21:36;;;;;;;2.50;2.30;;;;;;;12.26;52.43;96322.16;5032449;28;20025;-69
2022/01/01 05:24:05;;;;;;;2.75;2.40;;;;;;;12.70;52.36;96404.59;5032672;28;20045;-69
2022/01/01 05:26:31;;;;;;;3.30;2.58;;;;;;;12.61;52.33;96378.84;5032923;28;20028;-69
2022/01/01 05:28:57;;;;;;;4.05;2.65;;;;;;;12.99;51.68;96404.47;5032334;28;20026;-68
2022/01/01 05:31:23;;;;;;;3.08;2.47;;;;;;;12.81;51.34;96359.09;5033123;28;20037;-68
2022/01/01 05:33:50;;;;;;;3.20;2.67;;;;;;;13.31;50.75;96419.06;5032990;28;20079;-69
2022/01/01 05:36:16;;;;;;;2.70;2.50;;;;;;;13.08;51.23;96411.84;5032907;28;20387;-68
2022/01/01 05:38:43;;;;;;;2.70;2.50;;;;;;;12.96;51.49;96406.94;5031849;28;20033;-69
2022/01/01 05:41:09;;;;;;;3.53;2.38;;;;;;;12.88;51.46;96391.56;5032329;28;20028;-68
2022/01/01 05:43:34;;;;;;;4.53;2.80;;;;;;;12.83;51.61;96371.06;5015048;28;20017;-69
2022/01/01 05:46:00;;;;;;;4.00;2.72;;;;;;;13.12;50.76;96383.50;5015203;28;20083;-68
2022/01/01 05:48:26;;;;;;;3.35;2.60;;;;;;;13.40;50.16;96405.81;5032352;28;20029;-69
2022/01/01 05:50:51;;;;;;;4.03;2.60;;;;;;;13.38;49.58;96392.75;5032185;28;20033;-68
2022/01/01 05:53:17;;;;;;;3.85;2.67;;;;;;;13.30;49.87;96369.34;5032162;28;20030;-68
2022/01/01 05:55:43;;;;;;;3.03;2.72;;;;;;;13.41;49.73;96392.19;5032417;28;20682;-68
2022/01/01 05:58:08;;;;;;;3.38;2.75;;;;;;;13.22;49.71;96370.00;5032353;28;20025;-68
2022/01/01 06:00:35;;;;;;;3.70;2.97;;;;;;;13.24;49.79;96365.16;5014587;28;20593;-69
2022/01/01 06:03:01;;;;;;;3.53;2.65;;;;;;;13.33;49.86;96384.81;5032564;28;20040;-69
2022/01/01 06:05:28;;;;;;;3.70;3.15;;;;;;;13.45;49.91;96411.88;5014848;28;20642;-68
2022/01/01 06:07:58;;;;;;;3.53;2.70;;;;;;;13.43;49.66;96415.94;5031923;28;20028;-68
2022/01/01 06:10:24;;;;;;;3.03;2.75;;;;;;;13.40;49.67;96417.28;5031191;28;20078;-69
2022/01/01 06:12:50;;;;;;;4.03;2.80;;;;;;;13.15;50.08;96394.38;5032051;28;20025;-68
2022/01/01 06:15:16;;;;;;;3.33;2.88;;;;;;;13.11;49.87;96389.94;5032245;28;20075;-70
2022/01/01 06:17:41;;;;;;;4.40;3.05;;;;;;;12.98;50.06;96360.16;5032155;28;20477;-68
2022/01/01 06:20:07;;;;;;;3.03;2.72;;;;;;;13.24;50.05;96413.25;5031342;28;20033;-69
2022/01/01 06:22:33;;;;;;;4.97;2.63;;;;;;;13.17;50.21;96408.25;5031061;28;20039;-69
2022/01/01 06:24:58;;;;;;;3.55;2.90;;;;;;;13.06;50.33;96400.69;5031209;28;20067;-69
2022/01/01 06:27:23;;;;;;;3.30;2.70;;;;;;;12.77;50.05;96355.41;5031641;28;20096;-68
2022/01/01 06:29:50;;;;;;;2.90;2.50;;;;;;;12.96;49.89;96390.94;5031380;28;20112;-70
2022/01/01 06:32:15;;;;;;;3.65;3.10;;;;;;;12.97;50.20;96392.50;5032433;28;20034;-68
2022/01/01 06:34:41;;;;;;;3.17;2.65;;;;;;;12.78;50.26;96373.00;5032277;28;20032;-68
2022/01/01 06:37:06;;;;;;;3.20;2.90;;;;;;;12.77;50.31;96372.22;5031149;28;20052;-68
2022/01/01 06:39:32;;;;;;;3.78;3.20;;;;;;;12.78;50.27;96371.13;5030761;28;20028;-68
2022/01/01 06:41:57;;;;;;;5.78;3.30;;;;;;;12.91;50.62;96404.34;5031068;28;20029;-68
2022/01/01 06:44:22;;;;;;;3.42;3.05;;;;;;;12.15;50.43;96297.47;5031723;28;20022;-68
2022/01/01 06:46:48;;;;;;;4.55;3.03;;;;;;;12.76;50.29;96397.31;5013771;28;20083;-68
2022/01/01 06:49:13;;;;;;;4.22;2.90;;;;;;;12.80;50.50;96409.03;5030750;28;20036;-68
2022/01/01 06:51:38;;;;;;;4.95;2.60;;;;;;;12.69;50.47;96391.53;5031230;28;20407;-70
2022/01/01 06:54:05;;;;;;;4.53;3.00;;;;;;;12.71;50.16;96394.72;5030793;28;20021;-68
2022/01/01 06:56:30;;;;;;;2.97;2.67;;;;;;;12.58;50.34;96379.38;5031057;28;20028;-69
2022/01/01 06:58:56;;;;;;;6.47;3.70;;;;;;;12.22;50.46;96331.78;5030542;28;20021;-68
2022/01/01 07:01:21;;;;;;;4.50;3.22;;;;;;;12.71;50.23;96402.72;5031115;28;20060;-69
2022/01/01 07:03:47;;;;;;;3.70;3.38;;;;;;;12.69;50.46;96411.03;5031191;28;20021;-69
2022/01/01 07:06:12;;;;;;;3.67;2.88;;;;;;;12.68;50.33;96404.09;5031101;28;20401;-69
2022/01/01 07:08:37;;;;;;;3.90;3.38;;;;;;;12.48;50.46;96382.97;5030193;28;20061;-68
2022/01/01 07:11:03;;;;;;;3.60;3.25;;;;;;;12.55;50.06;96391.44;5030231;28;20033;-68
2022/01/01 07:13:28;;;;;;;5.45;2.92;;;;;;;12.49;50.70;96385.38;5030857;28;20033;-68
2022/01/01 07:15:54;;;;;;;4.75;2.65;;;;;;;12.39;50.24;96374.81;5030918;28;20029;-69
2022/01/01 07:18:19;;;;;;;6.43;3.35;;;;;;;12.48;49.85;96391.78;5012652;28;20090;-68
2022/01/01 07:20:44;;;;;;;3.33;3.03;;;;;;;12.67;49.93;96413.19;5030654;28;20136;-69
2022/01/01 07:23:10;;;;;;;4.05;3.25;;;;;;;12.53;50.12;96395.47;5030067;28;20387;-68
2022/01/01 07:25:36;;;;;;;3.72;3.00;;;;;;;12.70;49.80;96414.50;5030385;28;20383;-69
2022/01/01 07:28:01;;;;;;;5.10;3.20;;;;;;;12.11;49.85;96327.66;5030608;28;20037;-70
2022/01/01 07:30:27;;;;;;;3.65;3.08;;;;;;;12.63;49.84;96406.81;5030038;28;20025;-68
2022/01/01 07:32:52;;;;;;;3.78;3.03;;;;;;;12.63;49.54;96392.69;5030689;28;20021;-66
2022/01/01 07:35:19;;;;;;;3.60;3.30;;;;;;;12.83;49.23;96418.31;5020591;23;20046;-63
2022/01/01 07:37:45;;;;;;;3.30;2.83;;;;;;;12.64;49.37;96383.59;4993104;28;20026;-62
2022/01/01 07:40:13;;;;;;;3.28;2.85;;;;;;;12.93;49.20;96402.19;4988991;28;20041;-63
2022/01/01 07:42:39;;;;;;;3.70;3.30;;;;;;;12.89;49.15;96395.81;4990972;28;20516;-64
2022/01/01 07:45:06;;;;;;;3.47;3.17;;;;;;;12.92;48.91;96389.91;4991041;28;20026;-61
2022/01/01 07:47:31;;;;;;;4.18;2.75;;;;;;;12.65;48.86;96348.63;4989783;28;20037;-61
2022/01/01 07:49:57;;;;;;;3.28;2.97;;;;;;;13.10;48.67;96404.34;4990378;28;20018;-61
2022/01/01 07:52:22;;;;;;;3.45;2.83;;;;;;;13.01;48.67;96388.19;4993002;28;20053;-61
2022/01/01 07:54:48;;;;;;;4.28;2.97;;;;;;;13.08;48.50;96385.16;4991401;28;20077;-61
2022/01/01 07:57:13;;;;;;;3.15;2.85;;;;;;;13.13;48.44;96385.06;4990637;28;20032;-62
2022/01/01 07:59:38;;;;;;;7.10;3.55;;;;;;;13.06;48.08;96365.97;4990480;28;20031;-62
2022/01/01 08:02:04;;;;;;;3.13;2.83;;;;;;;13.31;47.99;96391.50;4990479;28;20432;-62
2022/01/01 08:04:30;;;;;;;2.95;2.70;;;;;;;13.28;47.87;96382.22;4990950;28;20097;-62
2022/01/01 08:06:55;;;;;;;3.60;2.63;;;;;;;13.42;47.77;96388.41;4990696;28;20274;-63
2022/01/01 08:09:20;;;;;;;3.65;2.97;;;;;;;13.44;47.75;96396.91;4992188;28;20058;-62
2022/01/01 08:11:46;;;;;;;3.10;2.80;;;;;;;13.28;47.41;96352.81;4990353;28;20054;-62
2022/01/01 08:14:11;;;;;;;3.38;2.45;;;;;;;13.57;47.01;96397.28;4990634;28;20026;-62
2022/01/01 08:17:03;;;;;;;2.47;2.22;;;;;;;13.60;47.06;96388.66;4989326;28;20080;-63
2022/01/01 08:19:29;;;;;;;4.65;3.03;;;;;;;13.73;46.99;96401.28;4988507;28;20046;-62
2022/01/01 08:21:55;;;;;;;3.35;2.83;;;;;;;13.60;46.99;96369.94;4990465;28;20428;-67
2022/01/01 08:24:21;;;;;;;3.20;2.70;;;;;;;13.85;46.57;96398.13;4992162;28;20110;-62
2022/01/01 08:26:47;;;;;;;2.95;2.58;;;;;;;13.76;46.75;96376.63;4990135;28;20528;-64
2022/01/01 08:29:13;;;;;;;3.53;2.30;;;;;;;13.81;46.57;96395.25;4989701;28;20038;-64
2022/01/01 08:31:38;;;;;;;2.63;2.28;;;;;;;13.50;47.14;96394.97;4988763;28;20385;-64
2022/01/01 08:34:04;;;;;;;3.25;2.80;;;;;;;13.75;46.91;96423.16;4989157;28;20022;-63
2022/01/01 08:36:29;;;;;;;2.78;2.58;;;;;;;13.14;47.32;96413.38;4990366;28;20092;-63
2022/01/01 08:38:55;;;;;;;2.80;2.53;;;;;;;13.43;47.36;96435.44;4991139;28;20023;-63
2022/01/01 08:41:20;;;;;;;3.33;2.63;;;;;;;13.31;47.50;96429.75;4988671;28;20480;-63
2022/01/01 08:43:45;;;;;;;3.55;2.65;;;;;;;13.31;47.20;96419.06;4990087;28;20064;-64
2022/01/01 08:46:11;;;;;;;3.15;2.55;;;;;;;13.27;47.04;96415.38;4992169;28;20027;-64
2022/01/01 08:48:37;;;;;;;3.10;2.80;;;;;;;13.23;47.20;96403.66;4996614;28;20044;-64
2022/01/01 08:51:20;;;;;;;4.80;2.80;;;;;;;13.05;48.04;96441.81;4996368;28;20041;-63
2022/01/01 08:53:46;;;;;;;4.80;3.05;;;;;;;13.10;46.53;96346.38;4998622;28;20076;-69
2022/01/01 08:56:11;;;;;;;3.38;2.40;;;;;;;13.42;46.77;96431.19;4998061;28;20037;-59
2022/01/01 08:58:37;;;;;;;4.20;2.90;;;;;;;13.87;46.24;96391.44;4995859;28;20018;-64
2022/01/01 09:01:03;;;;;;;3.22;2.80;;;;;;;13.88;46.15;96402.91;4996607;28;20031;-62
2022/01/01 09:03:29;;;;;;;3.10;2.33;;;;;;;13.81;46.48;96421.22;4996955;28;20026;-64
2022/01/01 09:05:55;;;;;;;2.78;2.42;;;;;;;13.77;46.30;96383.59;4997224;28;20511;-66
2022/01/01 09:08:20;;;;;;;3.20;2.50;;;;;;;14.13;46.11;96405.16;4995134;28;20176;-61
2022/01/01 09:10:45;;;;;;;3.50;2.88;;;;;;;14.40;44.12;96393.66;4995908;28;20034;-63
2022/01/01 09:13:10;;;;;;;2.70;2.47;;;;;;;14.85;44.19;96417.19;4996806;28;20430;-63
2022/01/01 09:15:36;;;;;;;4.10;2.67;;;;;;;14.49;44.71;96432.06;4996687;28;20084;-66
2022/01/01 09:18:02;;;;;;;4.80;2.75;;;;;;;14.08;44.99;96394.53;4996416;28;20033;-64
2022/01/01 09:20:27;;;;;;;3.00;2.70;;;;;;;14.82;44.22;96440.78;4996265;28;20722;-65
2022/01/01 09:22:52;;;;;;;3.30;3.00;;;;;;;15.01;43.97;96410.41;4997490;28;20586;-62
2022/01/01 09:25:18;;;;;;;3.40;3.03;;;;;;;15.03;43.41;96400.19;4996359;28;20476;-64
2022/01/01 09:27:43;;;;;;;3.20;2.90;;;;;;;15.07;43.52;96409.19;4996797;28;20105;-66
2022/01/01 09:30:09;;;;;;;4.55;3.10;;;;;;;14.86;43.96;96441.00;4994351;28;20030;-66
2022/01/01 09:32:35;;;;;;;5.60;2.90;;;;;;;14.95;42.95;96407.06;4996480;28;20476;-63
2022/01/01 09:35:01;;;;;;;3.33;2.72;;;;;;;15.36;42.17;96422.25;4996370;28;20445;-65
2022/01/01 09:37:29;;;;;;;4.20;2.80;;;;;;;15.48;42.09;96402.94;4996477;28;20037;-66
2022/01/01 09:39:56;;;;;;;3.20;2.90;;;;;;;15.34;42.15;96451.22;4995671;28;20022;-66
2022/01/01 09:42:22;;;;;;;3.08;2.78;;;;;;;14.82;42.60;96434.63;4996109;28;20066;-63
2022/01/01 09:44:49;;;;;;;3.15;2.80;;;;;;;14.68;43.26;96440.00;4996209;28;20069;-65
2022/01/01 09:47:15;;;;;;;3.72;2.85;;;;;;;14.25;44.23;96464.31;4996200;28;20077;-65
2022/01/01 09:49:41;;;;;;;2.80;2.45;;;;;;;14.57;43.48;96455.47;4995643;28;20034;-65
2022/01/01 09:52:09;;;;;;;3.83;2.80;;;;;;;14.87;42.91;96429.19;4996145;28;20498;-62
2022/01/01 09:54:35;;;;;;;3.22;2.70;;;;;;;14.66;42.89;96446.75;4995351;28;20038;-63
2022/01/01 09:57:00;;;;;;;3.33;2.78;;;;;;;14.67;43.54;96459.03;4996012;28;20026;-65
2022/01/01 09:59:26;;;;;;;3.35;2.78;;;;;;;14.95;42.49;96447.25;4991020;28;20033;-61
2022/01/01 10:01:51;;;;;;;2.95;2.60;;;;;;;15.25;42.58;96437.75;4992990;28;20034;-62
2022/01/01 10:04:18;;;;;;;3.42;3.13;;;;;;;15.59;41.55;96421.16;4992977;28;20392;-61
2022/01/01 10:07:00;;;;;;;3.85;3.00;;;;;;;15.18;42.39;96449.97;4993059;28;20030;-66
2022/01/01 10:09:32;;;;;;;;;;;;;;;16.26;40.98;96471.34;4997665;28;20037;-62
2022/01/01 10:11:58;;;;;;;4.10;2.60;;;;;;;16.10;41.48;96452.13;4991802;28;19913;-64
2022/01/01 10:14:45;;;;;;;3.78;3.38;;;;;;;16.38;40.33;96449.31;4992833;28;20503;-63
2022/01/01 10:17:19;;;;;;;3.80;3.38;;;;;;;15.02;43.43;96444.94;4992716;28;20117;-63
2022/01/01 10:19:46;;;;;;;3.42;2.83;;;;;;;16.19;40.98;96452.19;4990876;28;20022;-65
2022/01/01 10:22:14;;;;;;;3.20;2.90;;;;;;;16.04;41.47;96442.63;4992501;28;20030;-64
2022/01/01 10:27:42;;;;;;;3.42;2.90;;;;;;;14.55;43.31;96355.91;4992879;28;20113;-64
2022/01/01 10:30:29;;;;;;;3.50;3.15;;;;;;;15.60;42.56;96432.66;4972456;28;20027;-63
2022/01/01 10:33:11;;;;;;;3.50;3.05;;;;;;;14.89;43.16;96418.94;4971006;28;20042;-63
2022/01/01 10:35:36;;;;;;;;;;;;;;;14.79;44.21;96454.78;4973398;28;20027;-63
2022/01/01 10:38:19;;;;;;;3.00;2.70;;;;;;;14.73;44.85;96447.13;4974379;28;20347;-66
2022/01/01 10:40:45;;;;;;;6.05;2.92;;;;;;;15.60;42.88;96448.75;4993189;28;20034;-65
2022/01/01 10:43:13;;;;;;;3.85;2.72;;;;;;;16.26;41.61;96423.00;4992178;28;20388;-63
2022/01/01 10:45:47;;;;;;;3.10;2.80;;;;;;;16.77;40.61;96442.38;4992476;28;20060;-60
2022/01/01 10:51:04;;;;;;;4.00;3.25;;;;;;;17.17;39.83;96415.41;4991763;28;20033;-62
2022/01/01 10:53:30;;;;;;;3.58;2.80;;;;;;;17.36;39.40;96432.06;4996196;28;20026;-61
2022/01/01 10:56:00;;;;;;;2.88;2.67;;;;;;;17.30;39.39;96393.78;4990853;28;20028;-62
2022/01/01 10:58:34;;;;;;;3.53;2.85;;;;;;;17.49;39.07;96400.72;4991843;28;20050;-62
2022/01/01 11:01:05;;;;;;;3.08;2.78;;;;;;;17.66;38.84;96414.16;4990280;28;20041;-61
2022/01/01 11:03:39;;;;;;;3.10;2.67;;;;;;;17.67;38.72;96408.47;4991921;28;20050;-60
2022/01/01 11:06:07;;;;;;;3.17;2.55;;;;;;;17.75;38.66;96406.88;4990503;28;20068;-62
2022/01/01 11:08:33;;;;;;;3.85;3.15;;;;;;;17.23;38.66;96317.34;4995023;28;20106;-61
2022/01/01 11:10:59;;;;;;;3.20;2.90;;;;;;;17.66;38.67;96381.88;4990462;28;20105;-65
2022/01/01 11:13:24;;;;;;;3.92;2.78;;;;;;;17.55;38.53;96354.50;4991386;28;20093;-63
2022/01/01 11:15:51;;;;;;;3.50;2.85;;;;;;;17.54;38.38;96355.59;4991472;28;20023;-62
2022/01/01 11:18:18;;;;;;;2.50;2.30;;;;;;;17.88;38.15;96397.06;4991093;28;20109;-65
2022/01/01 11:20:44;;;;;;;2.78;2.47;;;;;;;17.50;38.50;96391.53;4990687;28;20485;-63
2022/01/01 11:23:12;;;;;;;4.30;3.00;;;;;;;17.08;39.43;96400.06;4991562;28;20033;-63
2022/01/01 11:25:39;;;;;;;4.00;2.95;;;;;;;16.94;38.63;96331.41;4993307;28;20026;-63
2022/01/01 11:28:09;;;;;;;9.82;4.50;;;;;;;17.69;39.83;96394.69;4981855;28;20105;-64
2022/01/01 11:30:38;;;;;;;3.35;2.60;;;;;;;17.96;38.50;96385.47;4989351;28;20022;-64
2022/01/01 11:33:12;;;;;;;2.45;2.25;;;;;;;17.81;38.88;96391.38;4991030;28;20026;-64
2022/01/01 11:35:41;;;;;;;3.40;2.20;;;;;;;17.01;39.75;96367.47;4990932;28;20113;-67
2022/01/01 11:38:11;;;;;;;2.90;2.60;;;;;;;17.21;39.60;96352.63;4990763;28;20376;-65
2022/01/01 11:40:55;;;;;;;3.45;2.60;;;;;;;17.87;38.79;96390.13;4987818;28;20117;-65